createdAt,value
2022-11-12T00:01:23.339Z,6.53
2022-11-12T00:03:53.143Z,6.29
2022-11-12T00:06:23.941Z,6.26
2022-11-12T00:08:57.150Z,6.56
2022-11-12T00:12:08.180Z,6.39
2022-11-12T00:14:37.627Z,6.41
2022-11-12T00:17:10.163Z,6.25
2022-11-12T00:19:40.207Z,6.25
2022-11-12T00:22:19.977Z,6.45
2022-11-12T00:25:17.828Z,6.67
2022-11-12T00:27:47.353Z,6.57
2022-11-12T00:30:17.922Z,6.72
2022-11-12T00:32:47.338Z,6.30
2022-11-12T00:35:22.409Z,6.14
2022-11-12T00:37:57.199Z,6.25
2022-11-12T00:40:31.978Z,6.10
2022-11-12T00:43:13.833Z,6.62
2022-11-12T01:35:58.768Z,5.87
2022-11-12T01:38:45.772Z,5.76
2022-11-12T01:41:20.524Z,5.86
2022-11-12T01:44:06.130Z,6.03
2022-11-12T01:46:38.480Z,6.08
2022-11-12T01:49:21.144Z,5.70
2022-11-12T01:51:52.397Z,5.63
2022-11-12T01:54:26.441Z,6.19
2022-11-12T01:57:05.512Z,6.15
2022-11-12T01:59:42.191Z,5.82
2022-11-12T02:02:23.301Z,5.86
2022-11-12T02:04:55.777Z,5.82
2022-11-12T02:07:29.775Z,6.16
2022-11-12T02:10:03.311Z,6.23
2022-11-12T02:12:53.802Z,5.78
2022-11-12T02:15:26.508Z,5.64
2022-11-12T02:17:57.657Z,5.35
2022-11-12T02:20:30.741Z,5.65
2022-11-12T02:23:02.399Z,5.43
2022-11-12T02:25:32.626Z,5.15
2022-11-12T02:28:02.866Z,5.86
2022-11-12T02:30:38.259Z,5.82
2022-11-12T02:33:08.454Z,5.90
2022-11-12T02:35:41.458Z,5.68
2022-11-12T02:38:58.371Z,5.76
2022-11-12T02:42:06.543Z,6.14
2022-11-12T02:44:57.520Z,5.65
2022-11-12T02:48:18.002Z,5.55
2022-11-12T02:51:08.548Z,5.61
2022-11-12T02:53:44.438Z,5.61
2022-11-12T02:56:21.513Z,5.71
2022-11-12T03:02:24.300Z,6.16
2022-11-12T03:05:17.591Z,5.75
2022-11-12T03:07:54.140Z,6.17
2022-11-12T03:35:55.555Z,5.87
2022-11-12T03:38:26.765Z,5.54
2022-11-12T03:41:04.643Z,5.03
2022-11-12T03:43:38.478Z,5.55
2022-11-12T03:46:08.707Z,5.36
2022-11-12T03:48:40.485Z,5.50
2022-11-12T03:51:12.288Z,5.25
2022-11-12T03:53:43.741Z,5.31
2022-11-12T03:56:13.415Z,5.27
2022-11-12T03:58:43.925Z,5.62
2022-11-12T04:01:13.646Z,5.69
2022-11-12T04:03:47.668Z,5.64
2022-11-12T04:06:36.091Z,5.60
2022-11-12T04:09:10.050Z,6.01
2022-11-12T04:11:42.829Z,6.26
2022-11-12T04:14:12.578Z,6.00
2022-11-12T04:16:59.186Z,6.08
2022-11-12T04:19:47.105Z,6.04
2022-11-12T04:22:17.112Z,5.82
2022-11-12T04:25:05.924Z,5.64
2022-11-12T04:27:36.614Z,6.40
2022-11-12T04:30:19.260Z,5.84
2022-11-12T04:32:51.426Z,6.27
2022-11-12T04:35:21.897Z,5.89
2022-11-12T04:38:05.287Z,5.92
2022-11-12T04:40:54.217Z,6.20
2022-11-12T04:43:41.868Z,6.52
2022-11-12T04:46:13.074Z,6.62
2022-11-12T04:48:42.777Z,5.97
2022-11-12T04:51:27.346Z,6.18
2022-11-12T04:53:59.908Z,5.94
2022-11-12T04:56:31.226Z,6.09
2022-11-12T04:59:01.661Z,6.28
2022-11-12T05:01:31.700Z,6.41
2022-11-12T05:04:01.667Z,6.87
2022-11-12T05:06:49.167Z,6.58
2022-11-12T05:09:25.567Z,6.28
2022-11-12T05:11:57.298Z,6.54
2022-11-12T05:14:27.268Z,6.75
2022-11-12T05:16:57.219Z,6.54
2022-11-12T05:19:27.012Z,6.37
2022-11-12T05:22:21.884Z,6.57
2022-11-12T05:24:58.782Z,6.70
2022-11-12T05:27:32.817Z,6.59
2022-11-12T05:30:02.446Z,6.60
2022-11-12T05:32:32.206Z,6.82
2022-11-12T05:35:02.231Z,6.63
2022-11-12T05:37:36.159Z,6.87
2022-11-12T05:40:07.788Z,7.03
2022-11-12T05:42:40.668Z,7.12
2022-11-12T05:45:14.253Z,6.92
2022-11-12T05:47:44.208Z,7.04
2022-11-12T05:50:19.234Z,7.13
2022-11-12T05:52:52.294Z,7.31
2022-11-12T05:55:22.788Z,7.05
2022-11-12T05:57:53.583Z,7.20
2022-11-12T06:00:24.314Z,7.34
2022-11-12T06:03:01.997Z,7.46
2022-11-12T06:05:33.702Z,7.42
2022-11-12T06:08:04.342Z,7.56
2022-11-12T06:10:34.380Z,7.37
2022-11-12T06:13:05.940Z,7.38
2022-11-12T06:15:44.382Z,7.36
2022-11-12T06:18:15.819Z,7.40
2022-11-12T06:20:45.524Z,7.39
2022-11-12T06:23:15.114Z,7.45
2022-11-12T06:25:44.910Z,7.49
2022-11-12T06:28:15.801Z,7.39
2022-11-12T06:30:48.544Z,7.54
2022-11-12T06:33:26.747Z,7.69
2022-11-12T06:36:09.909Z,7.42
2022-11-12T06:38:52.329Z,7.62
2022-11-12T07:37:34.333Z,8.74
2022-11-12T07:40:29.462Z,8.33
2022-11-12T07:43:04.053Z,8.58
2022-11-12T07:45:33.858Z,8.68
2022-11-12T07:48:04.822Z,8.89
2022-11-12T07:50:34.598Z,8.94
2022-11-12T07:53:06.421Z,8.68
2022-11-12T07:55:40.911Z,8.16
2022-11-12T07:58:10.274Z,8.11
2022-11-12T08:00:39.808Z,8.29
2022-11-12T08:03:09.550Z,8.54
2022-11-12T08:05:39.418Z,8.70
2022-11-12T08:08:12.191Z,8.87
2022-11-12T08:10:42.508Z,8.80
2022-11-12T08:13:12.242Z,8.94
2022-11-12T08:15:41.565Z,8.92
2022-11-12T08:18:14.708Z,8.89
2022-11-12T08:20:44.354Z,8.90
2022-11-12T08:23:20.751Z,8.94
2022-11-12T08:25:51.487Z,9.10
2022-11-12T08:28:27.123Z,9.17
2022-11-12T08:30:58.443Z,9.10
2022-11-12T08:33:28.450Z,9.28
2022-11-12T08:36:06.772Z,9.24
2022-11-12T08:38:41.624Z,9.20
2022-11-12T08:41:12.412Z,9.38
2022-11-12T08:43:42.758Z,9.37
2022-11-12T08:46:12.704Z,9.37
2022-11-12T08:48:43.972Z,9.31
2022-11-12T08:51:13.545Z,9.45
2022-11-12T08:53:45.710Z,9.62
2022-11-12T08:56:15.349Z,9.52
2022-11-12T08:58:45.143Z,9.49
2022-11-12T09:01:14.936Z,9.50
2022-11-12T09:03:52.201Z,9.36
2022-11-12T09:06:21.601Z,9.17
2022-11-12T09:08:54.802Z,9.51
2022-11-12T09:11:26.585Z,9.35
2022-11-12T09:14:11.754Z,9.54
2022-11-12T09:16:41.605Z,9.21
2022-11-12T09:19:10.778Z,9.30
2022-11-12T09:21:42.248Z,8.97
2022-11-12T09:24:14.716Z,9.11
2022-11-12T09:26:45.323Z,9.34
2022-11-12T09:29:16.639Z,9.45
2022-11-12T09:31:48.603Z,9.62
2022-11-12T09:34:20.789Z,9.69
2022-11-12T09:36:51.272Z,9.96
2022-11-12T09:39:22.133Z,10.05
2022-11-12T09:41:51.557Z,10.22
2022-11-12T09:44:24.876Z,10.61
2022-11-12T09:46:57.845Z,10.84
2022-11-12T09:49:32.856Z,11.14
2022-11-12T09:52:07.928Z,10.96
2022-11-12T09:54:43.109Z,10.99
2022-11-12T09:57:13.714Z,11.26
2022-11-12T09:59:47.156Z,11.15
2022-11-12T10:02:27.614Z,11.39
2022-11-12T10:05:10.776Z,11.32
2022-11-12T10:07:50.840Z,11.55
2022-11-12T10:10:31.814Z,11.67
2022-11-12T10:13:11.251Z,11.95
2022-11-12T10:16:20.158Z,11.91
2022-11-12T10:19:02.662Z,11.77
2022-11-12T10:21:37.562Z,11.65
2022-11-12T10:24:10.061Z,11.90
2022-11-12T10:26:41.495Z,11.87
2022-11-12T10:29:15.874Z,11.61
2022-11-12T10:31:45.467Z,11.66
2022-11-12T10:34:19.864Z,11.71
2022-11-12T10:36:54.881Z,11.79
2022-11-12T10:39:35.921Z,11.77
2022-11-12T10:42:10.185Z,11.65
2022-11-12T10:44:40.064Z,11.72
2022-11-12T10:47:27.918Z,11.55
2022-11-12T10:50:16.927Z,11.44
2022-11-12T10:53:00.358Z,11.68
2022-11-12T10:55:31.426Z,11.60
2022-11-12T10:58:19.759Z,11.66
2022-11-12T11:00:57.858Z,11.69
2022-11-12T11:03:29.082Z,11.59
2022-11-12T11:06:02.519Z,11.75
2022-11-12T11:08:38.005Z,11.69
2022-11-12T11:11:21.202Z,11.75
2022-11-12T11:13:55.767Z,11.78
2022-11-12T11:16:26.997Z,11.73
2022-11-12T11:18:58.744Z,11.85
2022-11-12T11:21:42.450Z,11.79
2022-11-12T11:24:31.888Z,11.87
2022-11-12T11:27:06.318Z,11.98
2022-11-12T11:29:53.291Z,11.90
2022-11-12T11:32:37.823Z,12.07
2022-11-12T11:35:16.300Z,12.13
2022-11-12T11:37:58.393Z,12.27
2022-11-12T11:40:31.388Z,12.23
2022-11-12T11:43:14.014Z,12.35
2022-11-12T11:45:57.960Z,12.58
2022-11-12T11:48:35.879Z,12.42
2022-11-12T11:51:10.164Z,12.56
2022-11-12T11:53:45.210Z,12.33
2022-11-12T11:56:19.333Z,12.31
2022-11-12T11:59:05.155Z,12.33
2022-11-12T12:01:44.238Z,12.34
2022-11-12T12:04:26.642Z,12.44
2022-11-12T12:07:05.039Z,12.38
2022-11-12T12:09:39.490Z,12.41
2022-11-12T12:12:17.772Z,12.57
2022-11-12T12:14:54.318Z,12.64
2022-11-12T12:17:43.123Z,12.63
2022-11-12T12:20:22.121Z,12.67
2022-11-12T12:22:53.143Z,12.63
2022-11-12T12:25:25.046Z,12.71
2022-11-12T12:27:59.077Z,12.75
2022-11-12T12:30:28.536Z,12.73
2022-11-12T12:33:02.684Z,12.72
2022-11-12T12:35:34.431Z,12.75
2022-11-12T12:38:11.670Z,12.69
2022-11-12T12:40:45.488Z,12.62
2022-11-12T12:43:21.249Z,12.66
2022-11-12T12:45:50.561Z,12.68
2022-11-12T12:48:23.147Z,12.74
2022-11-12T12:50:53.440Z,12.72
2022-11-12T12:53:34.532Z,12.67
2022-11-12T12:56:05.822Z,12.70
2022-11-12T12:58:42.855Z,12.72
2022-11-12T13:01:15.894Z,12.86
2022-11-12T13:03:55.616Z,12.87
2022-11-12T13:06:30.616Z,12.87
2022-11-12T13:09:03.051Z,12.90
2022-11-12T13:12:09.920Z,12.98
2022-11-12T13:15:14.497Z,13.03
2022-11-12T13:17:48.855Z,12.93
2022-11-12T13:20:37.934Z,13.14
2022-11-12T13:24:00.329Z,13.06
2022-11-12T13:26:55.996Z,12.88
2022-11-12T13:29:41.355Z,12.83
2022-11-12T13:32:33.778Z,12.78
2022-11-12T13:35:26.404Z,12.71
2022-11-12T13:37:57.115Z,12.70
2022-11-12T13:40:45.955Z,12.76
2022-11-12T13:43:33.028Z,12.60
2022-11-12T13:46:24.058Z,12.50
2022-11-12T13:49:00.158Z,12.59
2022-11-12T13:51:39.094Z,12.55
2022-11-12T13:54:32.658Z,12.54
2022-11-12T13:57:27.776Z,12.58
2022-11-12T14:00:24.365Z,12.42
2022-11-12T14:02:56.064Z,12.46
2022-11-12T14:05:27.395Z,12.62
2022-11-12T14:08:07.571Z,12.53
2022-11-12T14:10:44.859Z,12.51
2022-11-12T14:13:32.834Z,12.28
2022-11-12T14:16:14.550Z,12.16
2022-11-12T14:18:58.163Z,12.20
2022-11-12T14:21:27.542Z,12.21
2022-11-12T14:23:58.443Z,12.23
2022-11-12T14:26:39.173Z,12.22
2022-11-12T14:29:08.645Z,12.21
2022-11-12T14:31:40.763Z,12.17
2022-11-12T14:34:23.385Z,12.32
2022-11-12T14:36:55.938Z,12.39
2022-11-12T14:39:33.238Z,12.37
2022-11-12T14:42:02.673Z,12.26
2022-11-12T14:44:38.486Z,12.03
2022-11-12T14:47:08.670Z,12.02
2022-11-12T14:49:44.795Z,11.95
2022-11-12T14:52:17.480Z,11.70
2022-11-12T14:54:51.140Z,11.67
2022-11-12T14:57:23.618Z,11.42
2022-11-12T14:59:53.424Z,11.34
2022-11-12T15:02:41.639Z,11.27
2022-11-12T15:05:19.769Z,11.20
2022-11-12T15:07:57.402Z,11.15
2022-11-12T15:10:37.224Z,11.08
2022-11-12T15:13:09.315Z,10.96
2022-11-12T15:15:43.548Z,10.95
2022-11-12T15:18:19.351Z,10.77
2022-11-12T15:21:05.865Z,10.67
2022-11-12T15:23:35.449Z,10.57
2022-11-12T15:26:10.599Z,10.68
2022-11-12T15:28:42.521Z,10.50
2022-11-12T15:31:20.276Z,10.37
2022-11-12T15:33:49.619Z,10.34
2022-11-12T15:36:20.186Z,10.45
2022-11-12T15:38:51.020Z,10.38
2022-11-12T15:41:30.200Z,10.42
2022-11-12T15:43:59.847Z,10.31
2022-11-12T15:46:29.566Z,10.43
2022-11-12T15:48:59.060Z,10.35
2022-11-12T15:51:29.441Z,10.19
2022-11-12T15:53:59.404Z,10.06
2022-11-12T15:56:31.017Z,10.27
2022-11-12T15:59:00.561Z,10.54
2022-11-12T16:01:30.771Z,10.46
2022-11-12T16:04:00.862Z,10.31
2022-11-12T16:06:30.957Z,10.14
2022-11-12T16:09:00.969Z,10.09
2022-11-12T16:11:38.212Z,10.33
2022-11-12T16:14:12.299Z,9.94
2022-11-12T16:16:42.196Z,9.90
2022-11-12T16:19:15.396Z,10.07
2022-11-12T16:21:45.228Z,9.97
2022-11-12T16:24:15.243Z,9.94
2022-11-12T16:26:46.891Z,10.20
2022-11-12T16:29:16.953Z,10.06
2022-11-12T16:31:47.189Z,9.90
2022-11-12T16:34:16.807Z,9.92
2022-11-12T16:36:54.493Z,9.68
2022-11-12T16:39:26.578Z,9.68
2022-11-12T16:41:58.113Z,9.59
2022-11-12T16:44:31.200Z,9.60
2022-11-12T16:47:24.057Z,9.71
2022-11-12T16:49:53.516Z,9.69
2022-11-12T16:52:26.058Z,9.58
2022-11-12T16:54:58.945Z,9.67
2022-11-12T16:57:32.510Z,9.52
2022-11-12T17:00:02.236Z,9.75
2022-11-12T17:02:31.527Z,9.54
2022-11-12T17:05:07.903Z,9.38
2022-11-12T17:07:37.753Z,9.16
2022-11-12T17:10:08.562Z,9.21
2022-11-12T17:12:40.877Z,9.13
2022-11-12T17:15:11.117Z,9.48
2022-11-12T17:17:41.062Z,9.18
2022-11-12T17:20:11.239Z,9.16
2022-11-12T17:22:40.889Z,9.31
2022-11-12T17:25:10.985Z,9.22
2022-11-12T17:27:44.654Z,9.07
2022-11-12T17:30:18.440Z,8.89
2022-11-12T17:32:50.152Z,8.75
2022-11-12T17:35:29.658Z,8.98
2022-11-12T17:37:59.150Z,9.49
2022-11-12T17:40:28.731Z,9.28
2022-11-12T17:42:59.609Z,8.90
2022-11-12T17:45:29.437Z,8.65
2022-11-12T17:47:59.032Z,8.79
2022-11-12T17:50:28.545Z,8.86
2022-11-12T17:52:57.967Z,8.57
2022-11-12T17:55:27.756Z,8.64
2022-11-12T17:57:58.854Z,8.55
2022-11-12T18:00:28.359Z,8.29
2022-11-12T18:02:58.533Z,8.34
2022-11-12T18:05:28.261Z,8.33
2022-11-12T18:07:57.936Z,8.41
2022-11-12T18:10:27.843Z,8.30
2022-11-12T18:12:59.399Z,8.42
2022-11-12T18:15:29.089Z,8.55
2022-11-12T18:17:58.947Z,8.71
2022-11-12T18:20:29.188Z,8.65
2022-11-12T18:22:58.843Z,8.52
2022-11-12T18:25:28.443Z,8.45
2022-11-12T18:27:59.513Z,8.87
2022-11-12T18:30:29.327Z,8.57
2022-11-12T18:32:59.753Z,9.00
2022-11-12T18:35:30.257Z,9.04
2022-11-12T18:38:05.286Z,8.77
2022-11-12T18:40:37.835Z,8.97
2022-11-12T18:43:09.142Z,8.88
2022-11-12T18:45:39.450Z,8.74
2022-11-12T18:48:11.165Z,9.00
2022-11-12T18:50:40.788Z,9.34
2022-11-12T18:56:02.660Z,8.71
2022-11-12T18:58:35.578Z,9.02
2022-11-12T19:01:11.201Z,8.67
2022-11-12T19:03:40.620Z,8.81
2022-11-12T19:06:11.934Z,8.89
2022-11-12T19:08:43.259Z,8.95
2022-11-12T19:11:15.952Z,8.85
2022-11-12T19:13:53.356Z,8.69
2022-11-12T19:16:25.949Z,9.03
2022-11-12T19:18:57.335Z,9.06
2022-11-12T19:21:32.504Z,9.30
2022-11-12T19:24:04.355Z,8.94
2022-11-12T19:31:18.437Z,8.97
2022-11-12T19:33:51.159Z,8.77
2022-11-12T19:36:24.062Z,8.81
2022-11-12T19:38:58.532Z,8.79
2022-11-12T19:41:28.759Z,9.19
2022-11-12T19:43:59.470Z,8.96
2022-11-12T19:46:32.303Z,8.77
2022-11-12T19:49:02.331Z,8.71
2022-11-12T19:51:32.126Z,8.61
2022-11-12T19:54:02.912Z,8.60
2022-11-12T19:56:35.700Z,8.67
2022-11-12T19:59:06.387Z,8.98
2022-11-12T20:01:39.294Z,8.65
2022-11-12T20:04:12.804Z,8.86
2022-11-12T20:06:43.657Z,8.54
2022-11-12T20:09:15.103Z,8.11
2022-11-12T20:11:46.781Z,8.52
2022-11-12T20:14:18.032Z,8.37
2022-11-12T20:16:51.756Z,8.57
2022-11-12T20:19:22.599Z,8.30
2022-11-12T20:21:54.595Z,8.28
2022-11-12T20:24:26.543Z,8.22
2022-11-12T20:26:57.715Z,8.16
2022-11-12T20:29:29.224Z,8.18
2022-11-12T20:32:01.953Z,8.19
2022-11-12T20:34:32.304Z,8.59
2022-11-12T20:37:02.925Z,8.32
2022-11-12T20:39:34.279Z,8.29
2022-11-12T20:42:04.492Z,8.37
2022-11-12T20:44:34.941Z,8.50
2022-11-12T20:47:06.273Z,8.18
2022-11-12T20:49:35.833Z,8.23
2022-11-12T20:52:05.741Z,8.18
2022-11-12T20:54:35.190Z,8.20
2022-11-12T20:57:04.796Z,8.46
2022-11-12T20:59:41.046Z,8.58
2022-11-12T21:02:13.705Z,8.73
2022-11-12T21:04:44.808Z,8.80
2022-11-12T21:07:16.203Z,8.49
2022-11-12T21:09:45.998Z,8.54
2022-11-12T21:12:16.332Z,8.48
2022-11-12T21:14:50.434Z,8.40
2022-11-12T21:17:22.208Z,8.61
2022-11-12T21:19:52.747Z,8.78
2022-11-12T21:22:23.118Z,8.90
2022-11-12T21:24:53.628Z,8.95
2022-11-12T21:27:24.514Z,8.81
2022-11-12T21:29:54.938Z,9.01
2022-11-12T21:32:27.044Z,9.08
2022-11-12T21:34:57.269Z,9.17
2022-11-12T21:37:27.018Z,9.04
2022-11-12T21:39:56.867Z,8.95
2022-11-12T21:42:27.395Z,9.18
2022-11-12T21:44:57.477Z,9.34
2022-11-12T21:47:29.254Z,9.49
2022-11-12T21:49:59.886Z,9.19
2022-11-12T21:52:30.803Z,8.85
2022-11-12T21:55:01.179Z,9.34
2022-11-12T21:57:31.590Z,9.30
2022-11-12T22:00:26.500Z,8.98
2022-11-12T22:02:58.153Z,9.37
2022-11-12T22:05:28.001Z,9.53
2022-11-12T22:07:57.494Z,9.13
2022-11-12T22:10:27.061Z,9.40
2022-11-12T22:13:24.780Z,9.24
2022-11-12T22:15:47.340Z,8.92
2022-11-12T22:18:18.491Z,9.01
2022-11-12T22:20:58.139Z,9.54
2022-11-12T22:23:28.277Z,9.45
2022-11-12T22:25:58.898Z,9.53
2022-11-12T22:28:29.139Z,9.66
2022-11-12T22:31:04.016Z,9.51
2022-11-12T22:33:35.062Z,9.51
2022-11-12T22:36:05.020Z,9.67
2022-11-12T22:38:35.631Z,9.56
2022-11-12T22:41:06.272Z,9.70
2022-11-12T22:43:36.747Z,9.61
2022-11-12T22:46:07.433Z,9.40
2022-11-12T22:48:38.152Z,9.49
2022-11-12T22:51:09.140Z,9.53
2022-11-12T22:53:38.686Z,9.76
2022-11-12T22:56:09.824Z,9.77
2022-11-12T22:58:40.279Z,9.87
2022-11-12T23:01:12.577Z,9.79
2022-11-12T23:03:44.006Z,9.67
2022-11-12T23:06:13.631Z,9.50
2022-11-12T23:08:43.755Z,9.29
2022-11-12T23:11:14.843Z,9.63
2022-11-12T23:13:44.659Z,9.85
2022-11-12T23:16:16.711Z,9.85
2022-11-12T23:18:47.883Z,9.64
2022-11-12T23:21:20.333Z,9.35
2022-11-12T23:23:50.139Z,9.55
2022-11-12T23:26:21.995Z,9.80
2022-11-12T23:28:51.945Z,9.69
2022-11-12T23:31:23.172Z,9.63
2022-11-12T23:33:55.335Z,9.23
2022-11-12T23:36:26.287Z,9.56
2022-11-12T23:38:56.101Z,9.86
2022-11-12T23:41:27.169Z,9.73
2022-11-12T23:43:58.094Z,9.79
2022-11-12T23:46:27.725Z,9.89
2022-11-12T23:48:59.541Z,9.97
2022-11-12T23:51:29.289Z,9.78
2022-11-12T23:53:58.828Z,9.60
2022-11-12T23:56:28.274Z,9.90
2022-11-12T23:58:58.492Z,9.49
